createdAt,value
2019-04-30T00:01:36.444Z,50.50
2019-04-30T00:04:17.723Z,50.57
2019-04-30T00:06:46.775Z,50.83
2019-04-30T00:09:19.248Z,50.79
2019-04-30T00:11:50.594Z,50.88
2019-04-30T00:14:19.110Z,50.89
2019-04-30T00:16:48.174Z,50.84
2019-04-30T00:19:19.685Z,50.83
2019-04-30T00:21:54.545Z,50.92
2019-04-30T00:24:18.896Z,50.92
2019-04-30T00:26:52.302Z,50.93
2019-04-30T00:29:26.517Z,51.12
2019-04-30T00:31:49.252Z,51.19
2019-04-30T00:34:18.288Z,51.18
2019-04-30T00:36:47.304Z,51.21
2019-04-30T00:39:16.789Z,51.35
2019-04-30T00:41:47.383Z,51.29
2019-04-30T00:44:19.978Z,51.44
2019-04-30T00:46:47.996Z,51.40
2019-04-30T00:49:23.002Z,51.47
2019-04-30T00:51:49.814Z,51.54
2019-04-30T00:54:22.550Z,51.65
2019-04-30T00:56:49.612Z,51.69
2019-04-30T00:59:18.687Z,51.74
2019-04-30T01:02:03.448Z,51.82
2019-04-30T01:04:39.121Z,51.88
2019-04-30T01:07:08.800Z,51.93
2019-04-30T01:09:39.617Z,51.97
2019-04-30T01:12:08.844Z,52.11
2019-04-30T01:14:38.612Z,52.21
2019-04-30T01:17:11.922Z,52.29
2019-04-30T01:19:39.604Z,52.37
2019-04-30T01:22:09.099Z,52.66
2019-04-30T01:24:38.674Z,52.71
2019-04-30T01:27:10.477Z,52.96
2019-04-30T01:29:44.159Z,53.11
2019-04-30T01:32:10.492Z,53.37
2019-04-30T01:34:44.256Z,53.35
2019-04-30T01:37:11.256Z,53.42
2019-04-30T01:39:40.326Z,53.40
2019-04-30T01:42:11.379Z,53.50
2019-04-30T01:44:43.476Z,53.51
2019-04-30T01:47:11.014Z,53.53
2019-04-30T01:49:42.682Z,53.53
2019-04-30T01:52:10.904Z,53.52
2019-04-30T01:54:39.942Z,53.54
2019-04-30T01:57:26.568Z,53.58
2019-04-30T02:00:05.471Z,53.55
2019-04-30T02:02:36.213Z,53.68
2019-04-30T02:05:05.717Z,53.89
2019-04-30T02:07:34.835Z,53.96
2019-04-30T02:10:03.975Z,53.80
2019-04-30T02:12:33.107Z,53.73
2019-04-30T02:15:02.193Z,53.81
2019-04-30T02:17:31.193Z,53.70
2019-04-30T02:20:00.234Z,53.69
2019-04-30T02:22:31.253Z,53.55
2019-04-30T02:25:00.058Z,53.52
2019-04-30T02:27:29.539Z,53.50
2019-04-30T02:29:59.397Z,53.47
2019-04-30T02:32:30.483Z,53.35
2019-04-30T02:35:19.419Z,53.24
2019-04-30T02:38:13.344Z,53.30
2019-04-30T02:40:42.789Z,53.37
2019-04-30T02:43:11.857Z,53.40
2019-04-30T02:45:41.257Z,53.43
2019-04-30T02:48:11.787Z,53.36
2019-04-30T02:50:41.117Z,53.37
2019-04-30T02:54:09.820Z,53.33
2019-04-30T02:56:40.131Z,53.30
2019-04-30T02:59:10.373Z,53.53
2019-04-30T03:01:40.379Z,53.60
2019-04-30T03:04:10.194Z,53.61
2019-04-30T03:06:40.223Z,53.54
2019-04-30T03:09:10.654Z,53.56
2019-04-30T03:11:40.764Z,53.68
2019-04-30T03:14:10.838Z,53.55
2019-04-30T03:16:52.620Z,53.45
2019-04-30T03:19:36.836Z,53.37
2019-04-30T03:22:13.179Z,53.37
2019-04-30T03:24:42.813Z,53.33
2019-04-30T03:27:12.368Z,53.28
2019-04-30T03:29:41.439Z,53.37
2019-04-30T03:32:13.297Z,53.35
2019-04-30T03:34:42.562Z,53.38
2019-04-30T03:37:12.038Z,53.38
2019-04-30T03:39:41.138Z,53.43
2019-04-30T03:42:10.281Z,53.45
2019-04-30T03:44:40.246Z,53.41
2019-04-30T03:47:10.897Z,53.49
2019-04-30T03:49:40.503Z,53.41
2019-04-30T03:52:13.146Z,53.44
2019-04-30T03:54:40.983Z,53.37
2019-04-30T03:57:10.921Z,53.37
2019-04-30T03:59:40.196Z,53.39
2019-04-30T04:02:20.781Z,53.41
2019-04-30T04:05:05.107Z,53.43
2019-04-30T04:07:42.572Z,53.47
2019-04-30T04:10:21.948Z,53.41
2019-04-30T04:12:51.006Z,53.27
2019-04-30T04:15:20.148Z,53.34
2019-04-30T04:17:50.343Z,53.34
2019-04-30T04:20:20.263Z,53.38
2019-04-30T04:22:49.870Z,53.38
2019-04-30T04:25:20.501Z,53.38
2019-04-30T04:27:50.840Z,53.33
2019-04-30T04:30:23.199Z,53.39
2019-04-30T04:32:52.259Z,53.39
2019-04-30T04:35:21.341Z,53.39
2019-04-30T04:37:50.447Z,53.45
2019-04-30T04:40:21.065Z,53.53
2019-04-30T04:42:50.459Z,53.49
2019-04-30T04:45:20.008Z,53.47
2019-04-30T04:47:50.314Z,53.45
2019-04-30T04:50:20.357Z,53.36
2019-04-30T04:52:49.815Z,53.38
2019-04-30T04:55:21.746Z,53.31
2019-04-30T04:57:50.198Z,53.31
2019-04-30T05:00:19.631Z,53.29
2019-04-30T05:03:09.456Z,53.23
2019-04-30T05:05:39.822Z,53.21
2019-04-30T05:08:09.137Z,53.11
2019-04-30T05:10:39.222Z,53.21
2019-04-30T05:13:15.898Z,53.17
2019-04-30T05:15:45.147Z,53.26
2019-04-30T05:18:14.387Z,53.09
2019-04-30T05:20:43.534Z,52.93
2019-04-30T05:23:12.706Z,52.80
2019-04-30T05:25:41.924Z,52.69
2019-04-30T05:28:11.049Z,52.67
2019-04-30T05:30:40.335Z,52.71
2019-04-30T05:33:09.579Z,52.43
2019-04-30T05:35:38.988Z,52.33
2019-04-30T05:38:09.312Z,52.43
2019-04-30T05:40:39.836Z,52.46
2019-04-30T05:43:11.336Z,52.42
2019-04-30T05:45:40.570Z,52.30
2019-04-30T05:48:09.761Z,52.22
2019-04-30T05:50:39.202Z,51.73
2019-04-30T05:53:08.987Z,51.39
2019-04-30T05:55:39.505Z,51.08
2019-04-30T05:58:09.392Z,50.55
2019-04-30T06:00:40.063Z,50.09
2019-04-30T06:03:09.550Z,49.71
2019-04-30T06:05:39.434Z,49.53
2019-04-30T06:08:09.306Z,49.42
2019-04-30T06:10:44.027Z,49.13
2019-04-30T06:13:28.626Z,48.98
2019-04-30T06:16:06.649Z,48.67
2019-04-30T06:18:35.804Z,48.06
2019-04-30T06:21:04.946Z,48.00
2019-04-30T06:23:34.220Z,47.91
2019-04-30T06:26:09.917Z,46.97
2019-04-30T06:28:34.631Z,47.02
2019-04-30T06:31:03.848Z,46.56
2019-04-30T06:33:33.089Z,45.99
2019-04-30T06:36:02.262Z,45.94
2019-04-30T06:38:31.568Z,45.00
2019-04-30T06:41:00.853Z,43.90
2019-04-30T06:43:30.086Z,43.08
2019-04-30T06:45:59.502Z,41.62
2019-04-30T06:48:29.552Z,40.45
2019-04-30T06:50:59.220Z,40.44
2019-04-30T06:53:29.239Z,40.76
2019-04-30T06:55:58.994Z,40.24
2019-04-30T06:58:29.203Z,40.27
2019-04-30T07:00:59.601Z,40.47
2019-04-30T07:03:29.134Z,39.67
2019-04-30T07:05:59.238Z,39.41
2019-04-30T07:08:55.557Z,39.29
2019-04-30T07:11:29.301Z,39.01
2019-04-30T07:13:59.986Z,38.70
2019-04-30T07:16:29.959Z,38.00
2019-04-30T07:18:59.240Z,37.15
2019-04-30T07:21:29.475Z,35.46
2019-04-30T07:23:59.678Z,34.15
2019-04-30T07:26:29.112Z,33.46
2019-04-30T07:29:02.183Z,33.05
2019-04-30T07:31:29.722Z,31.22
2019-04-30T07:33:59.556Z,30.25
2019-04-30T07:36:43.292Z,29.46
2019-04-30T07:39:00.149Z,27.99
2019-04-30T07:41:31.210Z,26.63
2019-04-30T07:44:00.322Z,25.82
2019-04-30T07:46:30.152Z,25.32
2019-04-30T07:49:00.546Z,24.73
2019-04-30T07:51:32.203Z,24.15
2019-04-30T07:54:00.725Z,24.26
2019-04-30T07:56:37.302Z,24.62
2019-04-30T07:59:02.885Z,24.72
2019-04-30T08:01:34.323Z,24.49
2019-04-30T08:04:16.380Z,24.50
2019-04-30T08:06:46.703Z,23.23
2019-04-30T08:09:16.340Z,22.84
2019-04-30T08:11:49.157Z,22.63
2019-04-30T08:14:21.151Z,23.26
2019-04-30T08:16:51.075Z,22.56
2019-04-30T08:19:20.394Z,21.78
2019-04-30T08:21:49.593Z,21.48
2019-04-30T08:24:19.362Z,21.27
2019-04-30T08:26:49.384Z,21.01
2019-04-30T08:29:19.491Z,20.51
2019-04-30T08:31:49.042Z,20.10
2019-04-30T08:34:20.083Z,20.19
2019-04-30T08:36:49.712Z,19.73
2019-04-30T08:39:19.735Z,18.86
2019-04-30T08:41:49.362Z,18.65
2019-04-30T08:44:20.815Z,18.18
2019-04-30T08:46:49.405Z,18.02
2019-04-30T08:49:19.268Z,17.81
2019-04-30T08:51:49.737Z,18.26
2019-04-30T08:54:20.033Z,18.81
2019-04-30T08:56:50.390Z,18.64
2019-04-30T08:59:20.956Z,17.98
2019-04-30T09:01:50.391Z,17.62
2019-04-30T09:04:20.197Z,17.16
2019-04-30T09:06:49.759Z,16.21
2019-04-30T09:09:20.809Z,16.36
2019-04-30T09:11:55.375Z,16.05
2019-04-30T09:14:20.837Z,16.38
2019-04-30T09:16:51.335Z,16.67
2019-04-30T09:19:21.251Z,16.45
2019-04-30T09:21:50.702Z,16.29
2019-04-30T09:24:19.895Z,15.84
2019-04-30T09:26:49.380Z,15.86
2019-04-30T09:29:19.132Z,15.74
2019-04-30T09:31:49.329Z,15.57
2019-04-30T09:34:21.000Z,15.84
2019-04-30T09:36:49.676Z,15.00
2019-04-30T09:39:19.936Z,15.12
2019-04-30T09:41:50.085Z,15.26
2019-04-30T09:44:19.530Z,14.70
2019-04-30T09:46:48.985Z,14.11
2019-04-30T09:49:19.701Z,13.97
2019-04-30T09:51:49.817Z,13.76
2019-04-30T09:54:20.211Z,13.86
2019-04-30T09:56:52.613Z,13.82
2019-04-30T09:59:20.532Z,13.34
2019-04-30T10:01:49.749Z,13.35
2019-04-30T10:04:20.445Z,12.67
2019-04-30T10:06:51.233Z,12.38
2019-04-30T10:09:20.488Z,13.01
2019-04-30T10:12:14.896Z,12.54
2019-04-30T10:14:44.268Z,12.23
2019-04-30T10:17:35.340Z,12.26
2019-04-30T10:20:05.691Z,12.07
2019-04-30T10:22:34.837Z,11.79
2019-04-30T10:25:10.131Z,11.92
2019-04-30T10:27:39.319Z,11.44
2019-04-30T10:30:09.335Z,11.47
2019-04-30T10:32:38.933Z,11.03
2019-04-30T10:35:08.515Z,10.76
2019-04-30T10:37:38.737Z,10.85
2019-04-30T10:40:10.080Z,11.02
2019-04-30T10:42:39.316Z,10.74
2019-04-30T10:45:09.758Z,10.69
2019-04-30T10:47:39.665Z,11.17
2019-04-30T10:50:09.937Z,11.53
2019-04-30T10:52:40.091Z,12.37
2019-04-30T10:55:14.318Z,13.00
2019-04-30T10:57:46.044Z,12.22
2019-04-30T11:00:15.544Z,11.42
2019-04-30T11:02:51.111Z,11.22
2019-04-30T11:05:23.648Z,11.35
2019-04-30T11:07:53.192Z,10.41
2019-04-30T11:10:25.364Z,10.39
2019-04-30T11:12:55.141Z,10.20
2019-04-30T11:15:26.329Z,9.75
2019-04-30T11:17:56.671Z,9.40
2019-04-30T11:20:26.381Z,9.27
2019-04-30T11:22:56.502Z,9.48
2019-04-30T11:25:27.564Z,9.38
2019-04-30T11:27:58.354Z,9.93
2019-04-30T11:30:29.672Z,10.43
2019-04-30T11:33:00.268Z,11.29
2019-04-30T11:35:29.824Z,11.09
2019-04-30T11:38:00.339Z,11.25
2019-04-30T11:40:37.181Z,11.33
2019-04-30T11:43:04.123Z,11.93
2019-04-30T11:46:08.666Z,12.77
2019-04-30T11:48:38.792Z,13.76
2019-04-30T11:51:09.448Z,15.15
2019-04-30T11:53:39.573Z,16.03
2019-04-30T11:56:12.305Z,16.93
2019-04-30T11:58:43.689Z,16.66
2019-04-30T12:01:14.936Z,17.49
2019-04-30T12:03:44.604Z,18.09
2019-04-30T12:06:14.291Z,18.45
2019-04-30T12:09:16.276Z,18.90
2019-04-30T12:11:50.551Z,19.30
2019-04-30T12:14:20.283Z,19.49
2019-04-30T12:17:05.837Z,19.86
2019-04-30T12:19:31.095Z,20.32
2019-04-30T12:22:00.571Z,20.71
2019-04-30T12:24:30.429Z,20.86
2019-04-30T12:27:00.008Z,20.31
2019-04-30T12:29:29.390Z,20.35
2019-04-30T12:31:58.812Z,20.91
2019-04-30T12:34:28.525Z,20.91
2019-04-30T12:36:59.635Z,21.08
2019-04-30T12:39:30.092Z,21.44
2019-04-30T12:42:01.983Z,21.80
2019-04-30T12:44:30.841Z,21.68
2019-04-30T12:47:00.211Z,21.64
2019-04-30T12:49:46.223Z,21.95
2019-04-30T12:52:20.510Z,22.11
2019-04-30T12:54:52.215Z,22.36
2019-04-30T12:57:34.473Z,22.02
2019-04-30T13:00:04.546Z,21.71
2019-04-30T13:02:34.726Z,21.70
2019-04-30T13:05:04.249Z,22.08
2019-04-30T13:07:34.600Z,22.62
2019-04-30T13:10:04.623Z,22.78
2019-04-30T13:12:35.254Z,22.84
2019-04-30T13:15:05.504Z,23.21
2019-04-30T13:17:34.864Z,23.49
2019-04-30T13:20:03.989Z,23.55
2019-04-30T13:22:33.332Z,23.72
2019-04-30T13:25:02.601Z,23.72
2019-04-30T13:27:34.716Z,24.14
2019-04-30T13:30:12.965Z,24.13
2019-04-30T13:32:55.299Z,24.07
2019-04-30T13:35:24.605Z,23.80
2019-04-30T13:37:58.933Z,23.90
2019-04-30T13:40:41.381Z,24.09
2019-04-30T13:43:10.861Z,23.98
2019-04-30T13:45:40.027Z,24.05
2019-04-30T13:48:09.211Z,24.05
2019-04-30T13:50:39.163Z,23.96
2019-04-30T13:53:09.777Z,23.95
2019-04-30T13:55:45.498Z,23.89
2019-04-30T13:58:09.904Z,23.99
2019-04-30T14:00:39.790Z,23.77
2019-04-30T14:03:21.365Z,23.79
2019-04-30T14:05:51.533Z,24.22
2019-04-30T14:08:29.255Z,24.28
2019-04-30T14:10:59.165Z,24.39
2019-04-30T14:13:28.612Z,24.42
2019-04-30T14:15:57.731Z,24.68
2019-04-30T14:18:30.759Z,24.70
2019-04-30T14:21:00.758Z,24.74
2019-04-30T14:23:28.791Z,25.09
2019-04-30T14:26:00.864Z,25.29
2019-04-30T14:28:29.281Z,25.28
2019-04-30T14:30:58.693Z,25.46
2019-04-30T14:33:29.353Z,25.54
2019-04-30T14:36:00.744Z,25.58
2019-04-30T14:38:30.049Z,25.72
2019-04-30T14:41:00.685Z,25.86
2019-04-30T14:43:42.329Z,25.70
2019-04-30T14:46:33.377Z,25.87
2019-04-30T14:49:41.070Z,25.89
2019-04-30T14:52:10.916Z,25.83
2019-04-30T14:54:55.370Z,26.02
2019-04-30T14:57:55.912Z,26.45
2019-04-30T15:00:39.608Z,26.79
2019-04-30T15:03:21.846Z,26.48
2019-04-30T15:05:51.843Z,26.38
2019-04-30T15:08:21.482Z,26.42
2019-04-30T15:10:51.258Z,26.51
2019-04-30T15:13:20.700Z,26.52
2019-04-30T15:15:50.417Z,26.34
2019-04-30T15:18:20.163Z,26.63
2019-04-30T15:20:49.940Z,26.32
2019-04-30T15:23:39.884Z,26.43
2019-04-30T15:26:21.619Z,26.37
2019-04-30T15:28:41.503Z,26.11
2019-04-30T15:31:11.133Z,25.95
2019-04-30T15:34:02.220Z,26.12
2019-04-30T15:36:22.620Z,25.96
2019-04-30T15:39:20.120Z,25.94
2019-04-30T15:41:49.889Z,26.06
2019-04-30T15:44:19.500Z,25.96
2019-04-30T15:46:54.703Z,26.06
2019-04-30T15:49:23.974Z,26.14
2019-04-30T15:51:53.477Z,26.17
2019-04-30T15:54:23.081Z,26.15
2019-04-30T15:56:52.405Z,26.17
2019-04-30T15:59:40.784Z,26.19
2019-04-30T16:02:28.746Z,26.18
2019-04-30T16:05:30.235Z,26.54
2019-04-30T16:08:19.111Z,26.62
2019-04-30T16:11:15.231Z,26.70
2019-04-30T16:14:18.662Z,26.75
2019-04-30T16:17:10.737Z,26.74
2019-04-30T16:19:41.173Z,26.86
2019-04-30T16:22:11.014Z,26.78
2019-04-30T16:24:43.784Z,27.10
2019-04-30T16:27:14.667Z,27.03
2019-04-30T16:29:45.509Z,27.03
2019-04-30T16:32:14.843Z,27.07
2019-04-30T16:34:44.846Z,27.07
2019-04-30T16:37:19.937Z,27.21
2019-04-30T16:39:49.536Z,27.17
2019-04-30T16:42:21.112Z,27.17
2019-04-30T16:44:53.913Z,27.38
2019-04-30T16:47:24.216Z,27.51
2019-04-30T16:49:53.673Z,27.57
2019-04-30T16:52:23.353Z,27.51
2019-04-30T16:54:55.035Z,27.74
2019-04-30T16:57:24.559Z,28.05
2019-04-30T16:59:55.491Z,29.55
2019-04-30T17:02:29.194Z,29.59
2019-04-30T17:05:22.866Z,29.19
2019-04-30T17:08:05.950Z,30.48
2019-04-30T17:11:00.656Z,32.08
2019-04-30T17:13:43.248Z,32.93
2019-04-30T17:16:15.889Z,33.47
2019-04-30T17:18:45.043Z,33.75
2019-04-30T17:21:14.195Z,33.95
2019-04-30T17:23:43.633Z,34.31
2019-04-30T17:26:13.123Z,34.47
2019-04-30T17:28:46.010Z,34.68
2019-04-30T17:31:15.357Z,34.91
2019-04-30T17:33:51.693Z,35.10
2019-04-30T17:36:29.784Z,35.19
2019-04-30T17:39:11.381Z,35.40
2019-04-30T17:41:56.110Z,35.77
2019-04-30T17:44:25.905Z,35.81
2019-04-30T17:47:00.103Z,36.22
2019-04-30T17:49:29.614Z,36.45
2019-04-30T17:51:59.283Z,36.52
2019-04-30T17:54:28.525Z,36.66
2019-04-30T17:56:57.939Z,36.81
2019-04-30T17:59:27.436Z,37.04
2019-04-30T18:02:01.593Z,37.24
2019-04-30T18:04:30.952Z,37.43
2019-04-30T18:07:00.500Z,37.67
2019-04-30T18:09:32.439Z,37.72
2019-04-30T18:12:02.027Z,37.91
2019-04-30T18:14:31.335Z,38.10
2019-04-30T18:17:00.588Z,38.13
2019-04-30T18:19:49.738Z,38.26
2019-04-30T18:22:42.868Z,38.53
2019-04-30T18:25:43.533Z,38.60
2019-04-30T18:28:12.752Z,38.93
2019-04-30T18:30:42.376Z,39.09
2019-04-30T18:33:11.656Z,39.24
2019-04-30T18:35:40.875Z,39.31
2019-04-30T18:38:10.105Z,39.52
2019-04-30T18:44:19.699Z,39.81
2019-04-30T18:46:49.128Z,40.15
2019-04-30T18:49:18.802Z,40.35
2019-04-30T18:51:49.235Z,40.50
2019-04-30T18:54:20.904Z,40.55
2019-04-30T18:56:49.285Z,40.71
2019-04-30T18:59:19.627Z,40.79
2019-04-30T19:01:48.823Z,41.03
2019-04-30T19:04:18.916Z,41.02
2019-04-30T19:06:48.394Z,41.28
2019-04-30T19:09:42.515Z,41.36
2019-04-30T19:12:39.681Z,41.43
2019-04-30T19:15:41.296Z,41.59
2019-04-30T19:18:16.169Z,41.91
2019-04-30T19:20:49.582Z,41.90
2019-04-30T19:23:19.165Z,42.11
2019-04-30T19:25:48.627Z,42.25
2019-04-30T19:28:18.874Z,42.19
2019-04-30T19:30:55.883Z,42.26
2019-04-30T19:33:19.065Z,42.37
2019-04-30T19:35:50.315Z,42.61
2019-04-30T19:38:18.967Z,42.69
2019-04-30T19:40:49.364Z,42.72
2019-04-30T19:43:18.582Z,42.77
2019-04-30T19:45:49.012Z,42.73
2019-04-30T19:48:18.741Z,42.94
2019-04-30T19:50:48.889Z,43.13
2019-04-30T19:53:22.238Z,43.18
2019-04-30T19:55:51.691Z,43.37
2019-04-30T19:58:29.553Z,43.40
2019-04-30T20:00:51.764Z,43.59
2019-04-30T20:03:20.901Z,43.59
2019-04-30T20:05:50.173Z,43.77
2019-04-30T20:08:19.908Z,43.84
2019-04-30T20:10:49.614Z,43.99
2019-04-30T20:13:31.317Z,44.09
2019-04-30T20:15:49.800Z,44.19
2019-04-30T20:18:19.172Z,44.28
2019-04-30T20:20:51.845Z,44.44
2019-04-30T20:23:20.986Z,44.59
2019-04-30T20:25:50.098Z,44.61
2019-04-30T20:28:19.207Z,44.53
2019-04-30T20:30:49.004Z,44.71
2019-04-30T20:33:19.057Z,44.95
2019-04-30T20:35:48.911Z,45.06
2019-04-30T20:38:39.874Z,45.18
2019-04-30T20:41:10.124Z,45.31
2019-04-30T20:43:39.531Z,45.45
2019-04-30T20:46:08.773Z,45.43
2019-04-30T20:48:39.318Z,45.55
2019-04-30T20:51:09.533Z,45.78
2019-04-30T20:53:39.334Z,45.91
2019-04-30T20:56:09.940Z,46.12
2019-04-30T20:58:54.163Z,46.24
2019-04-30T21:01:09.937Z,46.43
2019-04-30T21:03:39.754Z,46.39
2019-04-30T21:06:09.001Z,46.46
2019-04-30T21:08:38.080Z,46.44
2019-04-30T21:11:09.297Z,46.69
2019-04-30T21:13:39.245Z,46.77
2019-04-30T21:16:08.377Z,46.93
2019-04-30T21:18:39.115Z,46.87
2019-04-30T21:21:08.507Z,46.97
2019-04-30T21:23:39.261Z,47.00
2019-04-30T21:26:08.650Z,47.24
2019-04-30T21:28:39.303Z,47.28
2019-04-30T21:31:26.123Z,47.56
2019-04-30T21:34:00.594Z,47.64
2019-04-30T21:36:29.861Z,47.76
2019-04-30T21:38:59.159Z,47.91
2019-04-30T21:41:29.651Z,48.07
2019-04-30T21:43:58.967Z,48.10
2019-04-30T21:46:29.344Z,48.13
2019-04-30T21:48:58.778Z,48.21
2019-04-30T21:51:28.262Z,48.26
2019-04-30T21:53:57.359Z,48.34
2019-04-30T21:56:26.432Z,48.41
2019-04-30T21:58:55.575Z,48.40
2019-04-30T22:01:25.823Z,48.48
2019-04-30T22:03:55.048Z,48.64
2019-04-30T22:06:24.121Z,48.62
2019-04-30T22:08:53.234Z,48.65
2019-04-30T22:11:22.347Z,48.70
2019-04-30T22:13:51.480Z,48.75
2019-04-30T22:16:20.627Z,48.82
2019-04-30T22:18:49.686Z,49.00
2019-04-30T22:21:18.764Z,49.09
2019-04-30T22:23:47.825Z,49.09
2019-04-30T22:26:17.023Z,49.22
2019-04-30T22:28:46.052Z,49.33
2019-04-30T22:31:15.230Z,49.50
2019-04-30T22:33:44.285Z,49.57
2019-04-30T22:36:41.475Z,49.68
2019-04-30T22:39:30.135Z,49.80
2019-04-30T22:42:03.643Z,49.92
2019-04-30T22:44:32.734Z,50.12
2019-04-30T22:47:01.840Z,50.21
2019-04-30T22:49:30.953Z,50.39
2019-04-30T22:52:00.016Z,50.62
2019-04-30T22:54:29.112Z,50.79
2019-04-30T22:56:58.138Z,50.95
2019-04-30T22:59:27.177Z,50.97
2019-04-30T23:02:13.962Z,51.09
2019-04-30T23:04:45.235Z,51.13
2019-04-30T23:07:14.364Z,51.17
2019-04-30T23:09:43.421Z,51.37
2019-04-30T23:12:12.501Z,51.39
2019-04-30T23:14:42.763Z,51.44
2019-04-30T23:17:11.962Z,51.57
2019-04-30T23:19:41.039Z,51.68
2019-04-30T23:22:10.160Z,51.69
2019-04-30T23:24:39.220Z,51.68
2019-04-30T23:27:08.256Z,51.72
2019-04-30T23:29:37.291Z,51.82
2019-04-30T23:32:06.361Z,51.87
2019-04-30T23:34:35.501Z,52.01
2019-04-30T23:37:04.591Z,52.18
2019-04-30T23:39:33.664Z,52.11
2019-04-30T23:42:02.731Z,52.12
2019-04-30T23:44:31.779Z,52.20
2019-04-30T23:47:00.847Z,52.34
2019-04-30T23:49:29.841Z,52.48
2019-04-30T23:51:58.884Z,52.66
2019-04-30T23:54:27.946Z,52.82
2019-04-30T23:56:57.179Z,52.84
2019-04-30T23:59:26.257Z,52.72
